Glorious Ace — ZGAL — position and weather

sailwx.info

Track history (hours):
 
Tides and Currents Weather Stations Pressure Air Temp Water Temp Dewpoint Dewpoint Depression Visibility Wind Speed Wind Dir Waves Ship Positions

Glorious Ace

Last reported at 2018-Feb-23 16:53 UTC. Time now 2018-Feb-23 22:22 UTC.
Position N 49°43' W 005°41'.

Length 200 m; draft 8.4 m.

Type: Cargo ship. MMSI: 319409000.

Date/timePositionNaut miles runAvg speedWind from/ knotsBaromVisibWave heightAir tempDewpointWater temp
2018-Feb-23 16:53N 49°43' W 005°41'616.3
2018-Feb-23 16:30N 49°45' W 005°32'1016.6
2018-Feb-23 15:53N 49°48' W 005°16'616.7
2018-Feb-23 15:30N 49°50' W 005°07'816.7
2018-Feb-23 15:00N 49°52' W 004°55'816.5
2018-Feb-23 14:31N 49°55' W 004°43'816.4
2018-Feb-23 14:00N 49°57' W 004°31'816.2
2018-Feb-23 13:30N 49°59' W 004°19'815.9
2018-Feb-23 13:00N 50°02' W 004°07'815.7
2018-Feb-23 12:30N 50°04' W 003°55'815.4
2018-Feb-23 12:00N 50°07' W 003°44'815.0
2018-Feb-23 11:31N 50°09' W 003°33'714.9
2018-Feb-23 11:01N 50°16' W 003°29'714.8
2018-Feb-23 10:30N 50°23' W 003°26'3 6.1
2018-Feb-23 10:00N 50°26' W 003°23'713.8
2018-Feb-23 09:30N 50°25' W 003°12'816.4
2018-Feb-23 09:00N 50°26' W 002°59'816.7
2018-Feb-23 08:30N 50°26' W 002°46'917.3
2018-Feb-23 08:00N 50°26' W 002°33'918.0
2018-Feb-23 07:30N 50°27' W 002°18'918.4
2018-Feb-23 07:00N 50°27' W 002°04'918.6
2018-Feb-23 06:31N 50°27' W 001°49'918.6
2018-Feb-23 06:00N 50°28' W 001°35'918.7
2018-Feb-23 05:30N 50°28' W 001°20'918.7
2018-Feb-23 05:01N 50°28' W 001°06'918.2
2018-Feb-23 04:31N 50°29' W 000°51'1017.1
2018-Feb-23 03:57N 50°29' W 000°36'716.3
2018-Feb-23 03:30N 50°29' W 000°25'816.0
2018-Feb-23 03:01N 50°29' W 000°12'815.5
2018-Feb-23 02:31N 50°31' W 000°00'815.1
2018-Feb-23 02:01N 50°33' E 000°11'714.7
2018-Feb-23 01:30N 50°35' E 000°22'714.7
2018-Feb-23 01:00N 50°38' E 000°33'815.3
2018-Feb-23 00:30N 50°42' E 000°43'816.1
2018-Feb-23 00:00N 50°47' E 000°53'817.0
2018-Feb-22 23:31N 50°52' E 001°03'917.6
2018-Feb-22 23:00N 50°58' E 001°14'918.3
2018-Feb-22 22:31N 51°03' E 001°26'918.2
2018-Feb-22 22:01N 51°09' E 001°37'917.2
2018-Feb-22 21:31N 51°15' E 001°47'816.4
2018-Feb-22 21:00N 51°22' E 001°54'815.8
2018-Feb-22 20:30N 51°29' E 002°01'815.2
2018-Feb-22 20:00N 51°35' E 002°09'815.1
2018-Feb-22 19:30N 51°40' E 002°17'10816.0
2018-Feb-22 12:44N 53°03' E 004°10'516.6
2018-Feb-22 12:28N 53°06' E 004°16'716.0
2018-Feb-22 12:00N 53°11' E 004°25'815.6
2018-Feb-22 11:28N 53°19' E 004°31'1614.5
2018-Feb-22 10:22N 53°31' E 004°47'1214.7
2018-Feb-22 09:35N 53°35' E 005°06'9516.2
2018-Feb-22 03:43N 53°57' E 007°42'712.3
2018-Feb-22 03:08N 53°52' E 007°52'1 9.9
2018-Feb-22 02:59N 53°52' E 007°55'715.1
2018-Feb-22 02:30N 53°50' E 008°06'816.5
2018-Feb-22 02:00N 53°44' E 008°16'815.4
2018-Feb-22 01:30N 53°39' E 008°26'611.4
2018-Feb-22 01:01N 53°34' E 008°32'1 1.2
2018-Feb-22 00:30N 53°34' E 008°33'0 0.0
2018-Feb-22 00:00N 53°34' E 008°33'0 0.7
2018-Feb-21 23:28N 53°35' E 008°33'0 0.0
2018-Feb-21 22:58N 53°35' E 008°33'0 0.0
2018-Feb-21 22:28N 53°35' E 008°33'0 0.0
2018-Feb-21 21:58N 53°35' E 008°33'0 0.0
2018-Feb-21 21:28N 53°35' E 008°33'0 0.0
2018-Feb-21 20:58N 53°35' E 008°33'0 0.0
2018-Feb-21 20:28N 53°35' E 008°33'0 0.0
2018-Feb-21 19:58N 53°35' E 008°33'0 0.0
2018-Feb-21 19:28N 53°35' E 008°33'0 0.0
2018-Feb-21 18:58N 53°35' E 008°33'0 0.0
2018-Feb-21 18:28N 53°35' E 008°33'0 0.0
2018-Feb-21 17:58N 53°35' E 008°33'0 0.0
2018-Feb-21 17:28N 53°35' E 008°33'0 0.0
2018-Feb-21 16:58N 53°35' E 008°33'0 0.0
2018-Feb-21 16:28N 53°35' E 008°33'0 0.0
2018-Feb-21 15:58N 53°35' E 008°33'0 0.0
2018-Feb-21 15:28N 53°35' E 008°33'0 0.0
2018-Feb-21 14:58N 53°35' E 008°33'0 0.0
2018-Feb-21 14:28N 53°35' E 008°33'0 0.0
2018-Feb-21 13:58N 53°35' E 008°33'0 0.0
2018-Feb-21 13:28N 53°35' E 008°33'0 0.0
2018-Feb-21 12:58N 53°35' E 008°33'0 0.0
2018-Feb-21 12:28N 53°35' E 008°33'0 0.0
2018-Feb-21 11:58N 53°35' E 008°33'0 0.0
2018-Feb-21 11:25N 53°35' E 008°33'0 0.0
2018-Feb-21 10:58N 53°35' E 008°33'0 0.0
2018-Feb-21 10:28N 53°35' E 008°33'0 0.0
2018-Feb-21 09:58N 53°35' E 008°33'0 0.0
2018-Feb-21 09:28N 53°35' E 008°33'0 0.0
2018-Feb-21 08:58N 53°35' E 008°33'0 0.0
2018-Feb-21 08:28N 53°35' E 008°33'0 0.0
2018-Feb-21 07:58N 53°35' E 008°33'0 0.0
2018-Feb-21 07:28N 53°35' E 008°33'0 0.0
2018-Feb-21 06:58N 53°35' E 008°33'0 0.0
2018-Feb-21 06:28N 53°35' E 008°33'0 0.0
2018-Feb-21 05:58N 53°35' E 008°33'0 0.0
2018-Feb-21 05:28N 53°35' E 008°33'0 0.0
2018-Feb-21 04:58N 53°35' E 008°33'0 0.0
2018-Feb-21 04:28N 53°35' E 008°33'0 0.0
2018-Feb-21 03:58N 53°35' E 008°33'0 0.0
2018-Feb-21 03:30N 53°35' E 008°33'0 0.8
2018-Feb-21 03:00N 53°34' E 008°33'1 1.9
2018-Feb-21 02:31N 53°35' E 008°32'713.8
2018-Feb-21 02:00N 53°40' E 008°23'917.1
2018-Feb-21 01:30N 53°45' E 008°12'815.9
2018-Feb-21 01:00N 53°51' E 008°02'23 1.7
2018-Feb-20 11:20N 54°02' E 007°28'40 2.3
2018-Feb-19 17:48N 53°44' E 006°27'612.6
2018-Feb-19 17:22N 53°40' E 006°21'3 9.2
2018-Feb-19 16:59N 53°37' E 006°21'714.9
2018-Feb-19 16:31N 53°37' E 006°33'917.7
2018-Feb-19 16:00N 53°31' E 006°45'715.0
2018-Feb-19 15:31N 53°26' E 006°55'612.4
2018-Feb-19 15:01N 53°21' E 006°59'5 9.1
2018-Feb-19 14:30N 53°20' E 007°07'2 4.0
2018-Feb-19 13:58N 53°20' E 007°11'0 0.0
2018-Feb-19 13:28N 53°20' E 007°11'0 0.0
2018-Feb-19 13:00N 53°20' E 007°11'0 0.0
2018-Feb-19 12:30N 53°20' E 007°11'0 0.0
2018-Feb-19 12:00N 53°20' E 007°11'0 0.0
2018-Feb-19 11:30N 53°20' E 007°11'0 0.0
2018-Feb-19 11:00N 53°20' E 007°11'0 0.0
2018-Feb-19 10:30N 53°20' E 007°11'0 0.0
2018-Feb-19 10:00N 53°20' E 007°11'0 0.0
2018-Feb-19 09:30N 53°20' E 007°11'0 0.0
2018-Feb-19 09:00N 53°20' E 007°11'0 0.0
2018-Feb-19 08:30N 53°20' E 007°11'0 0.0
2018-Feb-19 08:00N 53°20' E 007°11'0 0.0
2018-Feb-19 07:30N 53°20' E 007°11'0 0.0
2018-Feb-19 07:00N 53°20' E 007°11'0 0.0
2018-Feb-19 06:30N 53°20' E 007°11'0 0.0
2018-Feb-19 06:00N 53°20' E 007°11'0 0.0
2018-Feb-19 05:30N 53°20' E 007°11'0 0.0
2018-Feb-19 05:00N 53°20' E 007°11'0 0.0
2018-Feb-19 04:30N 53°20' E 007°11'0 0.0
2018-Feb-19 04:00N 53°20' E 007°11'0 0.0
2018-Feb-19 03:30N 53°20' E 007°11'0 0.0
2018-Feb-19 03:00N 53°20' E 007°11'0 0.0
2018-Feb-19 02:30N 53°20' E 007°11'0 0.0
2018-Feb-19 02:00N 53°20' E 007°11'0 0.0
2018-Feb-19 01:30N 53°20' E 007°11'0 0.0
2018-Feb-19 01:00N 53°20' E 007°11'0 0.0
2018-Feb-19 00:30N 53°20' E 007°11'0 0.0
2018-Feb-19 00:00N 53°20' E 007°11'0 0.0
2018-Feb-18 23:30N 53°20' E 007°11'0 0.0
2018-Feb-18 23:00N 53°20' E 007°11'0 0.0
2018-Feb-18 22:30N 53°20' E 007°11'0 0.0
2018-Feb-18 22:00N 53°20' E 007°11'0 0.0
2018-Feb-18 21:30N 53°20' E 007°11'0 0.0
2018-Feb-18 21:00N 53°20' E 007°11'0 0.0
2018-Feb-18 20:30N 53°20' E 007°11'0 0.0
2018-Feb-18 20:00N 53°20' E 007°11'0 0.0
2018-Feb-18 19:30N 53°20' E 007°11'0 0.0
2018-Feb-18 19:00N 53°20' E 007°11'0 0.0
2018-Feb-18 18:30N 53°20' E 007°11'0 0.0
2018-Feb-18 18:00N 53°20' E 007°11'0 0.0
2018-Feb-18 17:30N 53°20' E 007°11'0 0.0
2018-Feb-18 17:00N 53°20' E 007°11'0 0.0
2018-Feb-18 16:30N 53°20' E 007°11'0 0.0
2018-Feb-18 16:00N 53°20' E 007°11'0 0.0
2018-Feb-18 15:30N 53°20' E 007°11'0 0.0
2018-Feb-18 15:00N 53°20' E 007°11'0 0.0
2018-Feb-18 14:30N 53°20' E 007°11'0 0.0
2018-Feb-18 14:00N 53°20' E 007°11'0 0.0
2018-Feb-18 13:30N 53°20' E 007°11'0 0.0
2018-Feb-18 13:00N 53°20' E 007°11'0 0.4
2018-Feb-18 12:30N 53°20' E 007°11'3 5.1
2018-Feb-18 12:00N 53°20' E 007°07'4 8.9
2018-Feb-18 11:31N 53°21' E 006°59'612.3
2018-Feb-18 11:00N 53°26' E 006°55'713.6
2018-Feb-18 10:30N 53°31' E 006°46'714.1
2018-Feb-18 10:00N 53°35' E 006°37'612.5
2018-Feb-18 09:30N 53°37' E 006°26'510.0
2018-Feb-18 09:00N 53°38' E 006°18'510.2
2018-Feb-18 08:30N 53°38' E 006°10'612.3
2018-Feb-18 08:00N 53°39' E 005°60'712.0
2018-Feb-18 07:26N 53°42' E 005°49'1411.3
2018-Feb-18 06:14N 53°53' E 005°35'5 0.3
2018-Feb-17 14:53N 53°50' E 005°29'0 0.1
2018-Feb-17 14:24N 53°50' E 005°29'0 0.3
2018-Feb-17 13:04N 53°50' E 005°28'0 0.6
2018-Feb-17 12:44N 53°50' E 005°28'0 0.7
2018-Feb-17 12:26N 53°50' E 005°27'1 1.2
2018-Feb-17 11:29N 53°50' E 005°25'1 1.7
2018-Feb-17 11:00N 53°50' E 005°24'1 2.1
2018-Feb-17 10:29N 53°50' E 005°22'1 2.5
2018-Feb-17 09:59N 53°50' E 005°20'1 2.4
2018-Feb-17 09:30N 53°50' E 005°18'1 2.0
2018-Feb-17 08:59N 53°49' E 005°16'1 1.3
2018-Feb-17 08:29N 53°49' E 005°15'0 0.5
2018-Feb-17 07:59N 53°49' E 005°15'1 1.4
2018-Feb-17 07:29N 53°49' E 005°16'1 2.0
2018-Feb-17 06:58N 53°49' E 005°14'1 2.1
2018-Feb-17 06:23N 53°49' E 005°12'1 1.9
2018-Feb-17 05:58N 53°48' E 005°11'1 1.8
2018-Feb-17 05:27N 53°48' E 005°09'1 1.4
2018-Feb-17 05:00N 53°48' E 005°08'0 0.6
2018-Feb-17 04:30N 53°48' E 005°08'0 0.3
2018-Feb-17 04:00N 53°48' E 005°08'0 0.5
2018-Feb-17 03:26N 53°48' E 005°08'0 0.3
2018-Feb-17 02:59N 53°48' E 005°09'0 0.2
2018-Feb-17 02:30N 53°48' E 005°09'0 0.5
2018-Feb-17 01:55N 53°48' E 005°09'0 0.4
2018-Feb-17 01:30N 53°48' E 005°09'0 0.3
2018-Feb-17 01:00N 53°48' E 005°10'0 0.2
2018-Feb-17 00:30N 53°48' E 005°10'24 1.5
2018-Feb-16 08:11N 53°29' E 004°47'413.2
2018-Feb-16 07:55N 53°25' E 004°45'613.6
2018-Feb-16 07:30N 53°21' E 004°40'713.8
2018-Feb-16 07:00N 53°14' E 004°35'714.0
2018-Feb-16 06:30N 53°08' E 004°29'714.4
2018-Feb-16 06:01N 53°02' E 004°23'714.1
2018-Feb-16 05:31N 52°56' E 004°17'714.2
2018-Feb-16 05:00N 52°50' E 004°11'714.3
2018-Feb-16 04:30N 52°44' E 004°05'714.4
2018-Feb-16 04:00N 52°38' E 003°57'714.5
2018-Feb-16 03:30N 52°33' E 003°49'714.7
2018-Feb-16 03:00N 52°28' E 003°41'714.8
2018-Feb-16 02:30N 52°23' E 003°32'814.8
2018-Feb-16 02:00N 52°17' E 003°23'4014.1
2018-Feb-15 23:12N 51°47' E 002°42'312.8
2018-Feb-15 22:59N 51°44' E 002°41'612.0
2018-Feb-15 22:29N 51°38' E 002°43'612.4
2018-Feb-15 22:00N 51°33' E 002°43'612.4
2018-Feb-15 21:30N 51°26' E 002°43'5 9.9
2018-Feb-15 21:00N 51°22' E 002°47'917.4
2018-Feb-15 20:30N 51°24' E 003°00'714.2
2018-Feb-15 20:00N 51°22' E 003°11'2 4.0
2018-Feb-15 19:27N 51°20' E 003°13'0 0.0
2018-Feb-15 19:00N 51°20' E 003°13'0 0.2
2018-Feb-15 18:30N 51°20' E 003°13'2 3.9
2018-Feb-15 18:00N 51°18' E 003°14'0 0.0
2018-Feb-15 17:30N 51°18' E 003°14'0 0.0
2018-Feb-15 17:00N 51°18' E 003°14'0 0.0
2018-Feb-15 16:30N 51°18' E 003°14'0 0.0
2018-Feb-15 16:00N 51°18' E 003°14'0 0.0
2018-Feb-15 15:30N 51°18' E 003°14'0 0.0
2018-Feb-15 15:00N 51°18' E 003°14'0 0.0
2018-Feb-15 14:30N 51°18' E 003°14'0 0.0
2018-Feb-15 14:00N 51°18' E 003°14'0 0.0
2018-Feb-15 13:30N 51°18' E 003°14'0 0.0
2018-Feb-15 13:00N 51°18' E 003°14'0 0.0
2018-Feb-15 12:30N 51°18' E 003°14'0 0.0
2018-Feb-15 12:00N 51°18' E 003°14'0 0.0
2018-Feb-15 11:30N 51°18' E 003°14'0 0.0
2018-Feb-15 11:00N 51°18' E 003°14'0 0.0
2018-Feb-15 10:30N 51°18' E 003°14'0 0.0
2018-Feb-15 10:00N 51°18' E 003°14'0 0.0
2018-Feb-15 09:30N 51°18' E 003°14'0 0.4
2018-Feb-15 09:00N 51°18' E 003°14'2 3.7
2018-Feb-15 08:30N 51°20' E 003°13'0 0.0
2018-Feb-15 08:00N 51°20' E 003°13'0 0.0
2018-Feb-15 07:30N 51°20' E 003°13'1 2.8
2018-Feb-15 07:00N 51°21' E 003°12'1 2.8
2018-Feb-15 06:30N 51°22' E 003°11'4 8.3
2018-Feb-15 06:00N 51°24' E 003°05'5 9.2
2018-Feb-15 05:30N 51°23' E 002°58'5 9.9
2018-Feb-15 05:00N 51°22' E 002°50'510.3
2018-Feb-15 04:30N 51°21' E 002°41'3 4.9
2018-Feb-15 03:57N 51°22' E 002°37'1 3.1
2018-Feb-15 03:30N 51°21' E 002°35'2 4.1
2018-Feb-15 03:00N 51°22' E 002°32'2 4.6
2018-Feb-15 02:29N 51°21' E 002°29'3 6.8
2018-Feb-15 01:59N 51°20' E 002°24'3 7.0
2018-Feb-15 01:30N 51°19' E 002°19'4 7.4
2018-Feb-15 01:00N 51°17' E 002°14'4 7.9
2018-Feb-15 00:30N 51°15' E 002°08'4 8.6
2018-Feb-15 00:00N 51°12' E 002°03'4 8.7
2018-Feb-14 23:30N 51°10' E 001°57'5 9.5
2018-Feb-14 23:00N 51°08' E 001°50'510.2
2018-Feb-14 22:30N 51°04' E 001°44'510.3
2018-Feb-14 22:00N 51°00' E 001°39'5 9.7
2018-Feb-14 21:27N 50°56' E 001°33'4 8.9
2018-Feb-14 21:00N 50°53' E 001°29'4 8.6
2018-Feb-14 20:30N 50°50' E 001°25'714.0
2018-Feb-14 20:00N 50°43' E 001°21'815.0
2018-Feb-14 19:29N 50°38' E 001°12'814.7
2018-Feb-14 18:58N 50°33' E 001°03'715.3
2018-Feb-14 18:30N 50°30' E 000°53'815.2
2018-Feb-14 18:00N 50°27' E 000°42'815.1
2018-Feb-14 17:29N 50°25' E 000°30'715.0
2018-Feb-14 17:00N 50°23' E 000°19'815.0
2018-Feb-14 16:30N 50°20' E 000°08'714.7
2018-Feb-14 16:00N 50°17' W 000°03'714.3
2018-Feb-14 15:30N 50°15' W 000°13'713.9
2018-Feb-14 15:00N 50°13' W 000°23'713.6
2018-Feb-14 14:30N 50°10' W 000°33'613.0
2018-Feb-14 14:00N 50°07' W 000°42'713.4
2018-Feb-14 13:31N 50°04' W 000°51'713.1
2018-Feb-14 13:00N 50°01' W 001°00'612.7
2018-Feb-14 12:30N 49°58' W 001°09'713.0
2018-Feb-14 12:00N 49°55' W 001°18'713.3
2018-Feb-14 11:30N 49°52' W 001°27'713.8
2018-Feb-14 11:00N 49°48' W 001°36'612.1
2018-Feb-14 10:30N 49°44' W 001°43'3 6.9
2018-Feb-14 10:00N 49°45' W 001°48'5 9.2
2018-Feb-14 09:30N 49°47' W 001°55'510.5
2018-Feb-14 09:00N 49°49' W 002°03'912.7
2018-Feb-14 08:17N 49°52' W 002°16'512.1
2018-Feb-14 07:53N 49°52' W 002°23'513.5
2018-Feb-14 07:30N 49°51' W 002°31'713.5
2018-Feb-14 07:01N 49°49' W 002°41'816.8
2018-Feb-14 06:30N 49°47' W 002°53'1218.4
2018-Feb-14 05:52N 49°41' W 003°09'5617.1
2018-Feb-14 02:34N 49°15' W 004°26'114.4
2018-Feb-14 02:30N 49°14' W 004°27'914.6
2018-Feb-14 01:53N 49°10' W 004°40'614.3
2018-Feb-14 01:28N 49°08' W 004°48'714.6
2018-Feb-14 00:58N 49°05' W 004°58'715.9
2018-Feb-14 00:30N 49°02' W 005°08'815.7
2018-Feb-13 23:59N 48°58' W 005°19'715.4
2018-Feb-13 23:30N 48°53' W 005°28'815.3
2018-Feb-13 22:58N 48°47' W 005°36'814.9
2018-Feb-13 22:28N 48°40' W 005°41'713.8
2018-Feb-13 21:57N 48°33' W 005°45'613.4
2018-Feb-13 21:29N 48°27' W 005°49'913.1
2018-Feb-13 20:48N 48°19' W 005°53'412.9
2018-Feb-13 20:30N 48°15' W 005°54'612.8
2018-Feb-13 20:00N 48°09' W 005°57'  
Track history (hours):
 
Tides and Currents Weather Stations Pressure Air Temp Water Temp Dewpoint Dewpoint Depression Visibility Wind Speed Wind Dir Waves Ship Positions

Glorious Ace

Last reported at 2018-Feb-23 16:53 UTC. Time now 2018-Feb-23 22:22 UTC.
Position N 49°43' W 005°41'.

Length 200 m; draft 8.4 m.

Type: Cargo ship. MMSI: 319409000.

Date/timePositionNaut miles runAvg speedWind from/ knotsBaromVisibWave heightAir tempDewpointWater temp
2018-Feb-23 16:53N 49°43' W 005°41'616.3
2018-Feb-23 16:30N 49°45' W 005°32'1016.6
2018-Feb-23 15:53N 49°48' W 005°16'616.7
2018-Feb-23 15:30N 49°50' W 005°07'816.7
2018-Feb-23 15:00N 49°52' W 004°55'816.5
2018-Feb-23 14:31N 49°55' W 004°43'816.4
2018-Feb-23 14:00N 49°57' W 004°31'816.2
2018-Feb-23 13:30N 49°59' W 004°19'815.9
2018-Feb-23 13:00N 50°02' W 004°07'815.7
2018-Feb-23 12:30N 50°04' W 003°55'815.4
2018-Feb-23 12:00N 50°07' W 003°44'815.0
2018-Feb-23 11:31N 50°09' W 003°33'714.9
2018-Feb-23 11:01N 50°16' W 003°29'714.8
2018-Feb-23 10:30N 50°23' W 003°26'3 6.1
2018-Feb-23 10:00N 50°26' W 003°23'713.8
2018-Feb-23 09:30N 50°25' W 003°12'816.4
2018-Feb-23 09:00N 50°26' W 002°59'816.7
2018-Feb-23 08:30N 50°26' W 002°46'917.3
2018-Feb-23 08:00N 50°26' W 002°33'918.0
2018-Feb-23 07:30N 50°27' W 002°18'918.4
2018-Feb-23 07:00N 50°27' W 002°04'918.6
2018-Feb-23 06:31N 50°27' W 001°49'918.6
2018-Feb-23 06:00N 50°28' W 001°35'918.7
2018-Feb-23 05:30N 50°28' W 001°20'918.7
2018-Feb-23 05:01N 50°28' W 001°06'918.2
2018-Feb-23 04:31N 50°29' W 000°51'1017.1
2018-Feb-23 03:57N 50°29' W 000°36'716.3
2018-Feb-23 03:30N 50°29' W 000°25'816.0
2018-Feb-23 03:01N 50°29' W 000°12'815.5
2018-Feb-23 02:31N 50°31' W 000°00'815.1
2018-Feb-23 02:01N 50°33' E 000°11'714.7
2018-Feb-23 01:30N 50°35' E 000°22'714.7
2018-Feb-23 01:00N 50°38' E 000°33'815.3
2018-Feb-23 00:30N 50°42' E 000°43'816.1
2018-Feb-23 00:00N 50°47' E 000°53'817.0
2018-Feb-22 23:31N 50°52' E 001°03'917.6
2018-Feb-22 23:00N 50°58' E 001°14'918.3
2018-Feb-22 22:31N 51°03' E 001°26'918.2
2018-Feb-22 22:01N 51°09' E 001°37'917.2
2018-Feb-22 21:31N 51°15' E 001°47'816.4
2018-Feb-22 21:00N 51°22' E 001°54'815.8
2018-Feb-22 20:30N 51°29' E 002°01'815.2
2018-Feb-22 20:00N 51°35' E 002°09'815.1
2018-Feb-22 19:30N 51°40' E 002°17'10816.0
2018-Feb-22 12:44N 53°03' E 004°10'516.6
2018-Feb-22 12:28N 53°06' E 004°16'716.0
2018-Feb-22 12:00N 53°11' E 004°25'815.6
2018-Feb-22 11:28N 53°19' E 004°31'1614.5
2018-Feb-22 10:22N 53°31' E 004°47'1214.7
2018-Feb-22 09:35N 53°35' E 005°06'9516.2
2018-Feb-22 03:43N 53°57' E 007°42'712.3
2018-Feb-22 03:08N 53°52' E 007°52'1 9.9
2018-Feb-22 02:59N 53°52' E 007°55'715.1
2018-Feb-22 02:30N 53°50' E 008°06'816.5
2018-Feb-22 02:00N 53°44' E 008°16'815.4
2018-Feb-22 01:30N 53°39' E 008°26'611.4
2018-Feb-22 01:01N 53°34' E 008°32'1 1.2
2018-Feb-22 00:30N 53°34' E 008°33'0 0.0
2018-Feb-22 00:00N 53°34' E 008°33'0 0.7
2018-Feb-21 23:28N 53°35' E 008°33'0 0.0
2018-Feb-21 22:58N 53°35' E 008°33'0 0.0
2018-Feb-21 22:28N 53°35' E 008°33'0 0.0
2018-Feb-21 21:58N 53°35' E 008°33'0 0.0
2018-Feb-21 21:28N 53°35' E 008°33'0 0.0
2018-Feb-21 20:58N 53°35' E 008°33'0 0.0
2018-Feb-21 20:28N 53°35' E 008°33'0 0.0
2018-Feb-21 19:58N 53°35' E 008°33'0 0.0
2018-Feb-21 19:28N 53°35' E 008°33'0 0.0
2018-Feb-21 18:58N 53°35' E 008°33'0 0.0
2018-Feb-21 18:28N 53°35' E 008°33'0 0.0
2018-Feb-21 17:58N 53°35' E 008°33'0 0.0
2018-Feb-21 17:28N 53°35' E 008°33'0 0.0
2018-Feb-21 16:58N 53°35' E 008°33'0 0.0
2018-Feb-21 16:28N 53°35' E 008°33'0 0.0
2018-Feb-21 15:58N 53°35' E 008°33'0 0.0
2018-Feb-21 15:28N 53°35' E 008°33'0 0.0
2018-Feb-21 14:58N 53°35' E 008°33'0 0.0
2018-Feb-21 14:28N 53°35' E 008°33'0 0.0
2018-Feb-21 13:58N 53°35' E 008°33'0 0.0
2018-Feb-21 13:28N 53°35' E 008°33'0 0.0
2018-Feb-21 12:58N 53°35' E 008°33'0 0.0
2018-Feb-21 12:28N 53°35' E 008°33'0 0.0
2018-Feb-21 11:58N 53°35' E 008°33'0 0.0
2018-Feb-21 11:25N 53°35' E 008°33'0 0.0
2018-Feb-21 10:58N 53°35' E 008°33'0 0.0
2018-Feb-21 10:28N 53°35' E 008°33'0 0.0
2018-Feb-21 09:58N 53°35' E 008°33'0 0.0
2018-Feb-21 09:28N 53°35' E 008°33'0 0.0
2018-Feb-21 08:58N 53°35' E 008°33'0 0.0
2018-Feb-21 08:28N 53°35' E 008°33'0 0.0
2018-Feb-21 07:58N 53°35' E 008°33'0 0.0
2018-Feb-21 07:28N 53°35' E 008°33'0 0.0
2018-Feb-21 06:58N 53°35' E 008°33'0 0.0
2018-Feb-21 06:28N 53°35' E 008°33'0 0.0
2018-Feb-21 05:58N 53°35' E 008°33'0 0.0
2018-Feb-21 05:28N 53°35' E 008°33'0 0.0
2018-Feb-21 04:58N 53°35' E 008°33'0 0.0
2018-Feb-21 04:28N 53°35' E 008°33'0 0.0
2018-Feb-21 03:58N 53°35' E 008°33'0 0.0
2018-Feb-21 03:30N 53°35' E 008°33'0 0.8
2018-Feb-21 03:00N 53°34' E 008°33'1 1.9
2018-Feb-21 02:31N 53°35' E 008°32'713.8
2018-Feb-21 02:00N 53°40' E 008°23'917.1
2018-Feb-21 01:30N 53°45' E 008°12'815.9
2018-Feb-21 01:00N 53°51' E 008°02'23 1.7
2018-Feb-20 11:20N 54°02' E 007°28'40 2.3
2018-Feb-19 17:48N 53°44' E 006°27'612.6
2018-Feb-19 17:22N 53°40' E 006°21'3 9.2
2018-Feb-19 16:59N 53°37' E 006°21'714.9
2018-Feb-19 16:31N 53°37' E 006°33'917.7
2018-Feb-19 16:00N 53°31' E 006°45'715.0
2018-Feb-19 15:31N 53°26' E 006°55'612.4
2018-Feb-19 15:01N 53°21' E 006°59'5 9.1
2018-Feb-19 14:30N 53°20' E 007°07'2 4.0
2018-Feb-19 13:58N 53°20' E 007°11'0 0.0
2018-Feb-19 13:28N 53°20' E 007°11'0 0.0
2018-Feb-19 13:00N 53°20' E 007°11'0 0.0
2018-Feb-19 12:30N 53°20' E 007°11'0 0.0
2018-Feb-19 12:00N 53°20' E 007°11'0 0.0
2018-Feb-19 11:30N 53°20' E 007°11'0 0.0
2018-Feb-19 11:00N 53°20' E 007°11'0 0.0
2018-Feb-19 10:30N 53°20' E 007°11'0 0.0
2018-Feb-19 10:00N 53°20' E 007°11'0 0.0
2018-Feb-19 09:30N 53°20' E 007°11'0 0.0
2018-Feb-19 09:00N 53°20' E 007°11'0 0.0
2018-Feb-19 08:30N 53°20' E 007°11'0 0.0
2018-Feb-19 08:00N 53°20' E 007°11'0 0.0
2018-Feb-19 07:30N 53°20' E 007°11'0 0.0
2018-Feb-19 07:00N 53°20' E 007°11'0 0.0
2018-Feb-19 06:30N 53°20' E 007°11'0 0.0
2018-Feb-19 06:00N 53°20' E 007°11'0 0.0
2018-Feb-19 05:30N 53°20' E 007°11'0 0.0
2018-Feb-19 05:00N 53°20' E 007°11'0 0.0
2018-Feb-19 04:30N 53°20' E 007°11'0 0.0
2018-Feb-19 04:00N 53°20' E 007°11'0 0.0
2018-Feb-19 03:30N 53°20' E 007°11'0 0.0
2018-Feb-19 03:00N 53°20' E 007°11'0 0.0
2018-Feb-19 02:30N 53°20' E 007°11'0 0.0
2018-Feb-19 02:00N 53°20' E 007°11'0 0.0
2018-Feb-19 01:30N 53°20' E 007°11'0 0.0
2018-Feb-19 01:00N 53°20' E 007°11'0 0.0
2018-Feb-19 00:30N 53°20' E 007°11'0 0.0
2018-Feb-19 00:00N 53°20' E 007°11'0 0.0
2018-Feb-18 23:30N 53°20' E 007°11'0 0.0
2018-Feb-18 23:00N 53°20' E 007°11'0 0.0
2018-Feb-18 22:30N 53°20' E 007°11'0 0.0
2018-Feb-18 22:00N 53°20' E 007°11'0 0.0
2018-Feb-18 21:30N 53°20' E 007°11'0 0.0
2018-Feb-18 21:00N 53°20' E 007°11'0 0.0
2018-Feb-18 20:30N 53°20' E 007°11'0 0.0
2018-Feb-18 20:00N 53°20' E 007°11'0 0.0
2018-Feb-18 19:30N 53°20' E 007°11'0 0.0
2018-Feb-18 19:00N 53°20' E 007°11'0 0.0
2018-Feb-18 18:30N 53°20' E 007°11'0 0.0
2018-Feb-18 18:00N 53°20' E 007°11'0 0.0
2018-Feb-18 17:30N 53°20' E 007°11'0 0.0
2018-Feb-18 17:00N 53°20' E 007°11'0 0.0
2018-Feb-18 16:30N 53°20' E 007°11'0 0.0
2018-Feb-18 16:00N 53°20' E 007°11'0 0.0
2018-Feb-18 15:30N 53°20' E 007°11'0 0.0
2018-Feb-18 15:00N 53°20' E 007°11'0 0.0
2018-Feb-18 14:30N 53°20' E 007°11'0 0.0
2018-Feb-18 14:00N 53°20' E 007°11'0 0.0
2018-Feb-18 13:30N 53°20' E 007°11'0 0.0
2018-Feb-18 13:00N 53°20' E 007°11'0 0.4
2018-Feb-18 12:30N 53°20' E 007°11'3 5.1
2018-Feb-18 12:00N 53°20' E 007°07'4 8.9
2018-Feb-18 11:31N 53°21' E 006°59'612.3
2018-Feb-18 11:00N 53°26' E 006°55'713.6
2018-Feb-18 10:30N 53°31' E 006°46'714.1
2018-Feb-18 10:00N 53°35' E 006°37'612.5
2018-Feb-18 09:30N 53°37' E 006°26'510.0
2018-Feb-18 09:00N 53°38' E 006°18'510.2
2018-Feb-18 08:30N 53°38' E 006°10'612.3
2018-Feb-18 08:00N 53°39' E 005°60'712.0
2018-Feb-18 07:26N 53°42' E 005°49'1411.3
2018-Feb-18 06:14N 53°53' E 005°35'5 0.3
2018-Feb-17 14:53N 53°50' E 005°29'0 0.1
2018-Feb-17 14:24N 53°50' E 005°29'0 0.3
2018-Feb-17 13:04N 53°50' E 005°28'0 0.6
2018-Feb-17 12:44N 53°50' E 005°28'0 0.7
2018-Feb-17 12:26N 53°50' E 005°27'1 1.2
2018-Feb-17 11:29N 53°50' E 005°25'1 1.7
2018-Feb-17 11:00N 53°50' E 005°24'1 2.1
2018-Feb-17 10:29N 53°50' E 005°22'1 2.5
2018-Feb-17 09:59N 53°50' E 005°20'1 2.4
2018-Feb-17 09:30N 53°50' E 005°18'1 2.0
2018-Feb-17 08:59N 53°49' E 005°16'1 1.3
2018-Feb-17 08:29N 53°49' E 005°15'0 0.5
2018-Feb-17 07:59N 53°49' E 005°15'1 1.4
2018-Feb-17 07:29N 53°49' E 005°16'1 2.0
2018-Feb-17 06:58N 53°49' E 005°14'1 2.1
2018-Feb-17 06:23N 53°49' E 005°12'1 1.9
2018-Feb-17 05:58N 53°48' E 005°11'1 1.8
2018-Feb-17 05:27N 53°48' E 005°09'1 1.4
2018-Feb-17 05:00N 53°48' E 005°08'0 0.6
2018-Feb-17 04:30N 53°48' E 005°08'0 0.3
2018-Feb-17 04:00N 53°48' E 005°08'0 0.5
2018-Feb-17 03:26N 53°48' E 005°08'0 0.3
2018-Feb-17 02:59N 53°48' E 005°09'0 0.2
2018-Feb-17 02:30N 53°48' E 005°09'0 0.5
2018-Feb-17 01:55N 53°48' E 005°09'0 0.4
2018-Feb-17 01:30N 53°48' E 005°09'0 0.3
2018-Feb-17 01:00N 53°48' E 005°10'0 0.2
2018-Feb-17 00:30N 53°48' E 005°10'24 1.5
2018-Feb-16 08:11N 53°29' E 004°47'413.2
2018-Feb-16 07:55N 53°25' E 004°45'613.6
2018-Feb-16 07:30N 53°21' E 004°40'713.8
2018-Feb-16 07:00N 53°14' E 004°35'714.0
2018-Feb-16 06:30N 53°08' E 004°29'714.4
2018-Feb-16 06:01N 53°02' E 004°23'714.1
2018-Feb-16 05:31N 52°56' E 004°17'714.2
2018-Feb-16 05:00N 52°50' E 004°11'714.3
2018-Feb-16 04:30N 52°44' E 004°05'714.4
2018-Feb-16 04:00N 52°38' E 003°57'714.5
2018-Feb-16 03:30N 52°33' E 003°49'714.7
2018-Feb-16 03:00N 52°28' E 003°41'714.8
2018-Feb-16 02:30N 52°23' E 003°32'814.8
2018-Feb-16 02:00N 52°17' E 003°23'4014.1
2018-Feb-15 23:12N 51°47' E 002°42'312.8
2018-Feb-15 22:59N 51°44' E 002°41'612.0
2018-Feb-15 22:29N 51°38' E 002°43'612.4
2018-Feb-15 22:00N 51°33' E 002°43'612.4
2018-Feb-15 21:30N 51°26' E 002°43'5 9.9
2018-Feb-15 21:00N 51°22' E 002°47'917.4
2018-Feb-15 20:30N 51°24' E 003°00'714.2
2018-Feb-15 20:00N 51°22' E 003°11'2 4.0
2018-Feb-15 19:27N 51°20' E 003°13'0 0.0
2018-Feb-15 19:00N 51°20' E 003°13'0 0.2
2018-Feb-15 18:30N 51°20' E 003°13'2 3.9
2018-Feb-15 18:00N 51°18' E 003°14'0 0.0
2018-Feb-15 17:30N 51°18' E 003°14'0 0.0
2018-Feb-15 17:00N 51°18' E 003°14'0 0.0
2018-Feb-15 16:30N 51°18' E 003°14'0 0.0
2018-Feb-15 16:00N 51°18' E 003°14'0 0.0
2018-Feb-15 15:30N 51°18' E 003°14'0 0.0
2018-Feb-15 15:00N 51°18' E 003°14'0 0.0
2018-Feb-15 14:30N 51°18' E 003°14'0 0.0
2018-Feb-15 14:00N 51°18' E 003°14'0 0.0
2018-Feb-15 13:30N 51°18' E 003°14'0 0.0
2018-Feb-15 13:00N 51°18' E 003°14'0 0.0
2018-Feb-15 12:30N 51°18' E 003°14'0 0.0
2018-Feb-15 12:00N 51°18' E 003°14'0 0.0
2018-Feb-15 11:30N 51°18' E 003°14'0 0.0
2018-Feb-15 11:00N 51°18' E 003°14'0 0.0
2018-Feb-15 10:30N 51°18' E 003°14'0 0.0
2018-Feb-15 10:00N 51°18' E 003°14'0 0.0
2018-Feb-15 09:30N 51°18' E 003°14'0 0.4
2018-Feb-15 09:00N 51°18' E 003°14'2 3.7
2018-Feb-15 08:30N 51°20' E 003°13'0 0.0
2018-Feb-15 08:00N 51°20' E 003°13'0 0.0
2018-Feb-15 07:30N 51°20' E 003°13'1 2.8
2018-Feb-15 07:00N 51°21' E 003°12'1 2.8
2018-Feb-15 06:30N 51°22' E 003°11'4 8.3
2018-Feb-15 06:00N 51°24' E 003°05'5 9.2
2018-Feb-15 05:30N 51°23' E 002°58'5 9.9
2018-Feb-15 05:00N 51°22' E 002°50'510.3
2018-Feb-15 04:30N 51°21' E 002°41'3 4.9
2018-Feb-15 03:57N 51°22' E 002°37'1 3.1
2018-Feb-15 03:30N 51°21' E 002°35'2 4.1
2018-Feb-15 03:00N 51°22' E 002°32'2 4.6
2018-Feb-15 02:29N 51°21' E 002°29'3 6.8
2018-Feb-15 01:59N 51°20' E 002°24'3 7.0
2018-Feb-15 01:30N 51°19' E 002°19'4 7.4
2018-Feb-15 01:00N 51°17' E 002°14'4 7.9
2018-Feb-15 00:30N 51°15' E 002°08'4 8.6
2018-Feb-15 00:00N 51°12' E 002°03'4 8.7
2018-Feb-14 23:30N 51°10' E 001°57'5 9.5
2018-Feb-14 23:00N 51°08' E 001°50'510.2
2018-Feb-14 22:30N 51°04' E 001°44'510.3
2018-Feb-14 22:00N 51°00' E 001°39'5 9.7
2018-Feb-14 21:27N 50°56' E 001°33'4 8.9
2018-Feb-14 21:00N 50°53' E 001°29'4 8.6
2018-Feb-14 20:30N 50°50' E 001°25'714.0
2018-Feb-14 20:00N 50°43' E 001°21'815.0
2018-Feb-14 19:29N 50°38' E 001°12'814.7
2018-Feb-14 18:58N 50°33' E 001°03'715.3
2018-Feb-14 18:30N 50°30' E 000°53'815.2
2018-Feb-14 18:00N 50°27' E 000°42'815.1
2018-Feb-14 17:29N 50°25' E 000°30'715.0
2018-Feb-14 17:00N 50°23' E 000°19'815.0
2018-Feb-14 16:30N 50°20' E 000°08'714.7
2018-Feb-14 16:00N 50°17' W 000°03'714.3
2018-Feb-14 15:30N 50°15' W 000°13'713.9
2018-Feb-14 15:00N 50°13' W 000°23'713.6
2018-Feb-14 14:30N 50°10' W 000°33'613.0
2018-Feb-14 14:00N 50°07' W 000°42'713.4
2018-Feb-14 13:31N 50°04' W 000°51'713.1
2018-Feb-14 13:00N 50°01' W 001°00'612.7
2018-Feb-14 12:30N 49°58' W 001°09'713.0
2018-Feb-14 12:00N 49°55' W 001°18'713.3
2018-Feb-14 11:30N 49°52' W 001°27'713.8
2018-Feb-14 11:00N 49°48' W 001°36'612.1
2018-Feb-14 10:30N 49°44' W 001°43'3 6.9
2018-Feb-14 10:00N 49°45' W 001°48'5 9.2
2018-Feb-14 09:30N 49°47' W 001°55'510.5
2018-Feb-14 09:00N 49°49' W 002°03'912.7
2018-Feb-14 08:17N 49°52' W 002°16'512.1
2018-Feb-14 07:53N 49°52' W 002°23'513.5
2018-Feb-14 07:30N 49°51' W 002°31'713.5
2018-Feb-14 07:01N 49°49' W 002°41'816.8
2018-Feb-14 06:30N 49°47' W 002°53'1218.4
2018-Feb-14 05:52N 49°41' W 003°09'5617.1
2018-Feb-14 02:34N 49°15' W 004°26'114.4
2018-Feb-14 02:30N 49°14' W 004°27'914.6
2018-Feb-14 01:53N 49°10' W 004°40'614.3
2018-Feb-14 01:28N 49°08' W 004°48'714.6
2018-Feb-14 00:58N 49°05' W 004°58'715.9
2018-Feb-14 00:30N 49°02' W 005°08'815.7
2018-Feb-13 23:59N 48°58' W 005°19'715.4
2018-Feb-13 23:30N 48°53' W 005°28'815.3
2018-Feb-13 22:58N 48°47' W 005°36'814.9
2018-Feb-13 22:28N 48°40' W 005°41'713.8
2018-Feb-13 21:57N 48°33' W 005°45'613.4
2018-Feb-13 21:29N 48°27' W 005°49'913.1
2018-Feb-13 20:48N 48°19' W 005°53'412.9
2018-Feb-13 20:30N 48°15' W 005°54'612.8
2018-Feb-13 20:00N 48°09' W 005°57'  

Dump ship's entire track history